< Typhoon 197315 1973 Season Typhoon 197317 >
Typhoon 197316 (OPAL)
General InformationTrack Information on Google Maps || Disaster Info.ResourceGoogle EarthGE AnimationAtom FeedGeoJSON
Detalied Best Track (Time Zone = UTC)
Year Month Day Hour Lat. Long. Pressure (hPa) Wind (kt) Class Image Chart
1973 10 3 18 11.0 114.0 1002 0 2 -- Chart
1973 10 4 00 11.1 114.2 1004 0 2 -- Chart
1973 10 4 06 11.2 114.4 1004 0 2 -- Chart
1973 10 4 12 11.3 114.5 1002 0 2 -- Chart
1973 10 4 18 11.7 113.7 1000 0 9 -- Chart
1973 10 5 00 12.3 113.0 990 0 9 -- Chart
1973 10 5 06 12.6 112.5 990 0 9 -- Chart
1973 10 5 12 12.8 112.4 985 0 9 -- Chart
1973 10 5 18 13.1 112.0 980 0 9 -- Chart
1973 10 6 00 13.1 112.0 970 0 9 -- Chart
1973 10 6 06 13.4 112.3 970 0 9 -- Chart
1973 10 6 12 13.6 113.1 970 0 9 -- Chart
1973 10 6 18 13.9 112.5 970 0 9 -- Chart
1973 10 7 00 14.1 111.7 970 0 9 -- Chart
1973 10 7 06 14.3 111.0 970 0 9 -- Chart
1973 10 7 12 14.3 110.6 975 0 9 -- Chart
1973 10 7 18 14.2 110.0 975 0 9 -- Chart
1973 10 8 00 14.3 109.5 990 0 9 -- Chart
1973 10 8 06 14.3 109.0 990 0 9 -- Chart
1973 10 8 12 14.3 108.5 992 0 9 -- Chart
1973 10 8 18 14.3 108.0 996 0 9 -- Chart
Japan Meteorological Agency Best Track Data | Correction Date : 1989-06-01
< Typhoon 197315 1973 Season Typhoon 197317 >

Help